createdAt,value
2023-02-11T00:00:16.132Z,14.73
2023-02-11T00:01:28.889Z,14.00
2023-02-11T00:02:32.030Z,11.57
2023-02-11T00:03:33.864Z,12.05
2023-02-11T00:04:35.640Z,12.57
2023-02-11T00:05:37.501Z,14.45
2023-02-11T00:06:39.347Z,13.75
2023-02-11T00:07:40.976Z,13.75
2023-02-11T00:08:42.995Z,14.20
2023-02-11T00:09:44.730Z,12.77
2023-02-11T00:10:46.370Z,14.38
2023-02-11T00:11:48.091Z,13.90
2023-02-11T00:12:49.806Z,13.77
2023-02-11T00:13:51.877Z,13.57
2023-02-11T00:14:53.614Z,12.50
2023-02-11T00:15:55.573Z,15.00
2023-02-11T00:16:57.360Z,13.57
2023-02-11T00:17:59.022Z,13.60
2023-02-11T00:19:01.951Z,14.07
2023-02-11T00:20:05.991Z,13.95
2023-02-11T00:21:15.036Z,14.32
2023-02-11T00:22:16.829Z,14.23
2023-02-11T00:23:19.192Z,14.50
2023-02-11T00:24:20.936Z,15.50
2023-02-11T00:25:22.668Z,14.82
2023-02-11T00:26:27.959Z,15.25
2023-02-11T00:27:29.665Z,16.15
2023-02-11T00:28:31.426Z,14.90
2023-02-11T00:29:33.201Z,14.00
2023-02-11T00:30:35.146Z,13.82
2023-02-11T00:31:37.071Z,15.77
2023-02-11T00:32:38.862Z,13.80
2023-02-11T00:33:40.641Z,14.30
2023-02-11T00:34:42.419Z,12.98
2023-02-11T00:35:44.137Z,14.23
2023-02-11T00:36:45.772Z,13.80
2023-02-11T00:37:47.450Z,14.80
2023-02-11T00:38:51.089Z,15.02
2023-02-11T00:39:52.887Z,14.53
2023-02-11T00:40:54.762Z,13.23
2023-02-11T00:41:57.212Z,15.80
2023-02-11T00:42:58.920Z,13.68
2023-02-11T00:44:01.751Z,13.32
2023-02-11T00:45:04.093Z,11.90
2023-02-11T00:46:06.930Z,14.70
2023-02-11T00:47:08.711Z,13.15
2023-02-11T00:48:10.403Z,12.32
2023-02-11T00:49:12.170Z,11.88
2023-02-11T00:50:14.023Z,12.27
2023-02-11T00:51:15.792Z,8.05
2023-02-11T00:52:17.511Z,10.88
2023-02-11T00:53:19.270Z,12.10
2023-02-11T00:54:20.953Z,11.02
2023-02-11T00:55:22.709Z,9.85
2023-02-11T00:56:24.689Z,9.75
2023-02-11T00:57:26.394Z,8.32
2023-02-11T00:58:28.466Z,7.35
2023-02-11T00:59:30.239Z,4.88
2023-02-11T01:00:32.024Z,5.63
2023-02-11T01:01:33.884Z,5.05
2023-02-11T01:02:35.604Z,6.10
2023-02-11T01:03:37.228Z,5.90
2023-02-11T01:04:38.961Z,5.95
2023-02-11T01:05:40.807Z,4.90
2023-02-11T01:06:42.543Z,4.30
2023-02-11T01:07:44.648Z,4.75
2023-02-11T01:08:46.372Z,4.80
2023-02-11T01:09:48.054Z,3.42
2023-02-11T01:11:06.550Z,4.17
2023-02-11T01:12:08.181Z,3.38
2023-02-11T01:13:10.340Z,4.80
2023-02-11T01:14:12.105Z,4.75
2023-02-11T01:15:17.988Z,4.40
2023-02-11T01:16:20.646Z,4.03
2023-02-11T01:17:22.374Z,4.25
2023-02-11T01:18:24.542Z,4.88
2023-02-11T01:19:26.263Z,4.60
2023-02-11T01:20:29.320Z,4.78
2023-02-11T01:21:31.063Z,4.23
2023-02-11T01:22:32.994Z,4.38
2023-02-11T01:23:34.699Z,3.47
2023-02-11T01:24:36.432Z,4.75
2023-02-11T01:25:38.158Z,4.63
2023-02-11T01:26:39.942Z,4.20
2023-02-11T01:27:41.744Z,4.45
2023-02-11T01:28:43.627Z,3.60
2023-02-11T01:29:45.263Z,3.95
2023-02-11T01:30:47.041Z,3.78
2023-02-11T01:31:48.901Z,5.07
2023-02-11T01:32:50.758Z,4.53
2023-02-11T01:33:53.185Z,4.07
2023-02-11T01:34:55.122Z,4.60
2023-02-11T01:36:01.478Z,4.55
2023-02-11T01:37:03.156Z,4.45
2023-02-11T01:38:04.875Z,3.67
2023-02-11T01:39:06.804Z,4.60
2023-02-11T01:40:14.889Z,4.38
2023-02-11T01:41:16.631Z,4.50
2023-02-11T01:42:21.252Z,3.70
2023-02-11T01:43:24.617Z,4.43
2023-02-11T01:44:31.786Z,4.18
2023-02-11T01:45:45.660Z,3.30
2023-02-11T01:46:47.376Z,4.15
2023-02-11T01:47:49.137Z,4.75
2023-02-11T01:48:55.283Z,4.82
2023-02-11T01:50:02.138Z,4.28
2023-02-11T01:51:18.520Z,4.55
2023-02-11T01:52:23.448Z,3.90
2023-02-11T01:53:25.955Z,4.60
2023-02-11T01:54:32.932Z,3.80
2023-02-11T01:55:34.644Z,5.88
2023-02-11T01:56:42.385Z,6.15
2023-02-11T01:57:47.559Z,5.55
2023-02-11T01:58:51.741Z,4.18
2023-02-11T02:00:14.374Z,3.35
2023-02-11T02:01:23.123Z,5.53
2023-02-11T02:03:03.250Z,4.68
2023-02-11T02:04:06.926Z,4.63
2023-02-11T02:05:17.776Z,4.37
2023-02-11T02:06:34.537Z,3.88
2023-02-11T02:08:10.892Z,3.47
2023-02-11T02:09:37.884Z,4.00
2023-02-11T02:10:43.699Z,3.28
2023-02-11T02:11:45.418Z,3.63
2023-02-11T02:13:17.782Z,3.67
2023-02-11T02:14:19.592Z,2.78
2023-02-11T02:15:34.484Z,3.88
2023-02-11T02:16:37.646Z,3.83
2023-02-11T02:17:55.664Z,4.57
2023-02-11T02:19:18.825Z,3.55
2023-02-11T02:20:52.858Z,4.15
2023-02-11T02:22:12.638Z,3.70
2023-02-11T02:23:17.227Z,2.30
2023-02-11T02:24:47.482Z,2.90
2023-02-11T02:26:34.359Z,1.95
2023-02-11T02:27:35.920Z,2.15
2023-02-11T02:29:21.020Z,3.10
2023-02-11T02:30:50.375Z,1.90
2023-02-11T02:32:22.781Z,2.87
2023-02-11T02:34:06.589Z,2.92
2023-02-11T02:35:26.800Z,2.35
2023-02-11T02:36:45.430Z,3.65
2023-02-11T02:38:04.905Z,2.63
2023-02-11T02:39:12.046Z,3.35
2023-02-11T02:40:23.583Z,2.97
2023-02-11T02:41:34.214Z,3.20
2023-02-11T02:42:36.854Z,3.45
2023-02-11T02:43:46.036Z,3.88
2023-02-11T02:44:52.328Z,2.83
2023-02-11T02:45:54.075Z,3.88
2023-02-11T02:46:55.802Z,4.38
2023-02-11T02:47:58.310Z,4.65
2023-02-11T02:49:01.140Z,3.88
2023-02-11T02:50:05.026Z,3.63
2023-02-11T02:51:14.097Z,4.00
2023-02-11T02:52:33.818Z,3.22
2023-02-11T02:53:53.190Z,4.57
2023-02-11T02:55:13.176Z,4.38
2023-02-11T02:56:25.940Z,6.20
2023-02-11T02:58:07.737Z,7.13
2023-02-11T02:59:15.105Z,5.00
2023-02-11T03:00:47.731Z,7.28
2023-02-11T03:02:14.089Z,5.82
2023-02-11T03:03:36.794Z,7.40
2023-02-11T03:05:00.623Z,6.85
2023-02-11T03:06:15.674Z,5.10
2023-02-11T03:07:38.068Z,7.07
2023-02-11T03:09:00.001Z,5.97
2023-02-11T03:10:11.553Z,6.20
2023-02-11T03:11:17.272Z,6.25
2023-02-11T03:12:20.549Z,6.07
2023-02-11T03:13:28.169Z,6.47
2023-02-11T03:14:32.319Z,6.78
2023-02-11T03:15:39.340Z,6.57
2023-02-11T03:16:43.533Z,6.63
2023-02-11T03:17:49.592Z,5.93
2023-02-11T03:19:03.236Z,6.32
2023-02-11T03:20:07.095Z,7.68
2023-02-11T03:21:10.422Z,7.47
2023-02-11T03:22:20.079Z,7.10
2023-02-11T03:23:42.011Z,7.78
2023-02-11T03:24:45.313Z,7.43
2023-02-11T03:25:58.738Z,8.07
2023-02-11T03:27:18.144Z,8.80
2023-02-11T03:28:33.505Z,8.32
2023-02-11T03:29:43.934Z,8.13
2023-02-11T03:31:00.401Z,9.05
2023-02-11T03:32:09.260Z,8.90
2023-02-11T03:33:26.648Z,8.93
2023-02-11T03:34:36.571Z,8.63
2023-02-11T03:36:04.510Z,9.25
2023-02-11T03:37:14.236Z,9.77
2023-02-11T03:38:24.440Z,8.02
2023-02-11T03:39:33.374Z,8.23
2023-02-11T03:40:41.188Z,11.07
2023-02-11T03:41:43.917Z,8.32
2023-02-11T03:42:59.986Z,7.63
2023-02-11T03:44:02.865Z,7.88
2023-02-11T03:45:14.347Z,8.47
2023-02-11T03:46:19.584Z,8.30
2023-02-11T03:47:26.685Z,7.50
2023-02-11T03:48:33.388Z,8.60
2023-02-11T03:49:38.328Z,7.40
2023-02-11T03:50:41.943Z,8.65
2023-02-11T03:51:44.163Z,8.30
2023-02-11T03:52:47.161Z,8.43
2023-02-11T03:53:52.931Z,6.60
2023-02-11T03:54:57.957Z,6.25
2023-02-11T03:56:05.307Z,5.43
2023-02-11T03:57:07.029Z,5.72
2023-02-11T03:58:09.341Z,6.32
2023-02-11T03:59:11.035Z,5.05
2023-02-11T04:00:14.048Z,5.43
2023-02-11T04:01:16.225Z,5.97
2023-02-11T04:02:18.242Z,5.88
2023-02-11T04:03:19.950Z,5.43
2023-02-11T04:04:21.826Z,4.13
2023-02-11T04:05:23.588Z,4.13
2023-02-11T04:06:25.368Z,4.73
2023-02-11T04:07:27.546Z,4.53
2023-02-11T04:08:29.211Z,5.18
2023-02-11T04:09:30.910Z,4.13
2023-02-11T04:10:32.953Z,3.80
2023-02-11T04:11:34.632Z,4.25
2023-02-11T04:12:36.314Z,4.05
2023-02-11T04:13:38.009Z,4.57
2023-02-11T04:14:39.726Z,2.88
2023-02-11T04:15:41.354Z,3.67
2023-02-11T04:16:43.014Z,4.73
2023-02-11T04:17:44.848Z,3.58
2023-02-11T04:18:46.545Z,3.72
2023-02-11T04:19:48.312Z,3.13
2023-02-11T04:20:51.113Z,3.40
2023-02-11T04:21:52.883Z,3.72
2023-02-11T04:22:54.616Z,3.78
2023-02-11T04:23:56.267Z,4.18
2023-02-11T04:24:58.080Z,3.75
2023-02-11T04:25:59.819Z,2.95
2023-02-11T04:27:01.931Z,3.37
2023-02-11T04:28:03.737Z,3.80
2023-02-11T04:29:05.486Z,4.05
2023-02-11T04:30:09.674Z,3.03
2023-02-11T04:31:11.362Z,3.33
2023-02-11T04:32:13.409Z,3.45
2023-02-11T04:33:15.109Z,3.67
2023-02-11T04:34:16.946Z,2.88
2023-02-11T04:35:18.707Z,3.42
2023-02-11T04:36:20.375Z,4.13
2023-02-11T04:37:22.020Z,4.73
2023-02-11T04:38:23.735Z,4.97
2023-02-11T04:39:25.421Z,5.47
2023-02-11T04:40:27.184Z,3.97
2023-02-11T04:41:28.845Z,4.75
2023-02-11T04:42:30.993Z,5.10
2023-02-11T04:43:32.718Z,4.28
2023-02-11T04:44:34.415Z,4.88
2023-02-11T04:45:36.183Z,5.10
2023-02-11T04:46:37.960Z,4.65
2023-02-11T04:47:39.632Z,4.50
2023-02-11T04:48:41.250Z,3.50
2023-02-11T04:49:42.969Z,3.38
2023-02-11T04:50:44.723Z,3.55
2023-02-11T04:51:48.998Z,4.38
2023-02-11T04:52:51.135Z,4.15
2023-02-11T04:53:52.851Z,5.13
2023-02-11T04:54:54.492Z,4.50
2023-02-11T04:55:56.222Z,4.25
2023-02-11T04:56:57.932Z,3.78
2023-02-11T04:57:59.616Z,4.27
2023-02-11T04:59:01.318Z,4.75
2023-02-11T05:00:03.527Z,3.35
2023-02-11T05:01:13.650Z,4.20
2023-02-11T05:02:15.310Z,4.60
2023-02-11T05:03:17.037Z,5.72
2023-02-11T05:04:19.142Z,4.93
2023-02-11T05:05:20.898Z,3.72
2023-02-11T05:06:22.769Z,4.85
2023-02-11T05:07:24.517Z,4.43
2023-02-11T05:08:26.162Z,4.50
2023-02-11T05:09:27.846Z,4.50
2023-02-11T05:10:29.524Z,3.28
2023-02-11T05:11:31.398Z,3.67
2023-02-11T05:12:33.074Z,2.92
2023-02-11T05:13:34.752Z,2.80
2023-02-11T05:14:36.421Z,3.03
2023-02-11T05:15:38.093Z,3.13
2023-02-11T05:16:39.838Z,2.75
2023-02-11T05:17:41.593Z,2.42
2023-02-11T05:18:44.434Z,3.20
2023-02-11T05:19:46.096Z,2.80
2023-02-11T05:20:47.943Z,3.42
2023-02-11T05:22:01.719Z,2.80
2023-02-11T05:23:04.616Z,2.35
2023-02-11T05:24:06.909Z,3.63
2023-02-11T05:25:08.747Z,3.08
2023-02-11T05:26:11.048Z,2.60
2023-02-11T05:27:12.746Z,3.72
2023-02-11T05:28:14.511Z,3.67
2023-02-11T05:29:16.255Z,3.53
2023-02-11T05:30:17.918Z,3.25
2023-02-11T05:31:19.723Z,3.22
2023-02-11T05:32:21.388Z,2.78
2023-02-11T05:33:23.213Z,3.10
2023-02-11T05:34:24.957Z,2.97
2023-02-11T05:35:26.615Z,3.50
2023-02-11T05:36:28.282Z,3.58
2023-02-11T05:37:30.062Z,3.45
2023-02-11T05:38:31.855Z,3.10
2023-02-11T05:39:33.551Z,2.97
2023-02-11T05:40:35.250Z,3.58
2023-02-11T05:41:36.959Z,2.90
2023-02-11T05:42:38.651Z,4.65
2023-02-11T05:43:40.320Z,3.15
2023-02-11T05:44:42.018Z,3.15
2023-02-11T05:45:43.641Z,3.38
2023-02-11T05:46:45.406Z,4.10
2023-02-11T05:47:47.170Z,5.90
2023-02-11T05:48:48.848Z,7.40
2023-02-11T05:49:51.301Z,5.77
2023-02-11T05:50:53.107Z,5.03
2023-02-11T05:51:54.774Z,7.32
2023-02-11T05:52:56.464Z,18.63
2023-02-11T05:53:58.360Z,14.10
2023-02-11T05:55:00.016Z,22.52
2023-02-11T05:56:02.096Z,27.23
2023-02-11T05:57:04.161Z,26.52
2023-02-11T05:58:07.327Z,27.23
2023-02-11T05:59:09.066Z,24.65
2023-02-11T06:00:11.590Z,27.90
2023-02-11T06:01:13.291Z,23.88
2023-02-11T06:02:15.677Z,16.55
2023-02-11T06:03:17.435Z,9.52
2023-02-11T06:04:19.145Z,6.75
2023-02-11T06:05:20.817Z,5.63
2023-02-11T06:06:22.574Z,5.68
2023-02-11T06:07:24.204Z,4.65
2023-02-11T06:08:25.951Z,4.82
2023-02-11T06:09:27.854Z,4.35
2023-02-11T06:10:29.559Z,3.13
2023-02-11T06:11:31.401Z,4.15
2023-02-11T06:12:33.087Z,3.45
2023-02-11T06:13:35.817Z,3.60
2023-02-11T06:14:37.584Z,4.25
2023-02-11T06:15:39.830Z,4.32
2023-02-11T06:16:41.532Z,3.50
2023-02-11T06:17:43.173Z,4.35
2023-02-11T06:18:44.923Z,4.63
2023-02-11T06:19:46.618Z,4.22
2023-02-11T06:20:48.311Z,4.57
2023-02-11T06:21:49.981Z,5.25
2023-02-11T06:22:51.618Z,3.25
2023-02-11T06:23:53.324Z,3.75
2023-02-11T06:25:01.571Z,4.90
2023-02-11T06:26:09.057Z,2.80
2023-02-11T06:27:10.748Z,4.30
2023-02-11T06:28:12.696Z,4.25
2023-02-11T06:29:14.554Z,3.45
2023-02-11T06:30:16.228Z,3.67
2023-02-11T06:31:18.166Z,3.57
2023-02-11T06:32:39.550Z,4.03
2023-02-11T06:33:42.304Z,2.40
2023-02-11T06:34:44.019Z,3.50
2023-02-11T06:35:45.697Z,3.40
2023-02-11T06:36:47.318Z,4.00
2023-02-11T06:37:49.014Z,5.18
2023-02-11T06:38:51.238Z,6.50
2023-02-11T06:39:52.967Z,5.57
2023-02-11T06:40:54.877Z,6.50
2023-02-11T06:41:56.587Z,15.40
2023-02-11T06:42:58.220Z,12.70
2023-02-11T06:43:59.878Z,12.15
2023-02-11T06:45:01.586Z,11.05
2023-02-11T06:46:03.347Z,14.45
2023-02-11T06:47:05.196Z,9.48
2023-02-11T06:48:06.886Z,10.20
2023-02-11T06:49:08.637Z,10.98
2023-02-11T06:50:13.861Z,9.38
2023-02-11T06:51:15.638Z,13.52
2023-02-11T06:52:17.585Z,14.27
2023-02-11T06:53:19.274Z,12.93
2023-02-11T06:54:21.026Z,9.25
2023-02-11T06:55:22.801Z,11.77
2023-02-11T06:56:25.005Z,9.10
2023-02-11T06:57:26.659Z,6.75
2023-02-11T06:58:28.358Z,6.13
2023-02-11T06:59:30.014Z,5.30
2023-02-11T07:00:31.805Z,4.65
2023-02-11T07:01:33.590Z,5.28
2023-02-11T07:02:36.330Z,5.87
2023-02-11T07:03:40.987Z,4.45
2023-02-11T07:04:42.698Z,3.90
2023-02-11T07:05:44.450Z,4.88
2023-02-11T07:06:46.178Z,4.10
2023-02-11T07:07:47.829Z,4.13
2023-02-11T07:08:49.760Z,4.65
2023-02-11T07:09:51.457Z,5.55
2023-02-11T07:10:53.210Z,6.47
2023-02-11T07:11:54.925Z,5.88
2023-02-11T07:12:58.704Z,6.03
2023-02-11T07:14:03.562Z,8.80
2023-02-11T07:15:05.911Z,6.07
2023-02-11T07:16:09.480Z,5.07
2023-02-11T07:17:11.192Z,5.18
2023-02-11T07:18:14.693Z,5.70
2023-02-11T07:19:16.563Z,5.25
2023-02-11T07:20:18.339Z,5.20
2023-02-11T07:21:22.362Z,6.25
2023-02-11T07:22:24.139Z,6.25
2023-02-11T07:23:25.834Z,7.33
2023-02-11T07:24:27.496Z,6.38
2023-02-11T07:25:29.118Z,7.53
2023-02-11T07:26:30.747Z,9.82
2023-02-11T07:27:32.515Z,10.63
2023-02-11T07:28:35.795Z,9.13
2023-02-11T07:29:37.542Z,8.95
2023-02-11T07:30:39.210Z,8.25
2023-02-11T07:31:40.992Z,9.50
2023-02-11T07:32:42.824Z,9.68
2023-02-11T07:33:44.792Z,10.37
2023-02-11T07:34:46.552Z,10.00
2023-02-11T07:35:48.404Z,8.32
2023-02-11T07:36:50.283Z,11.15
2023-02-11T07:37:51.995Z,10.05
2023-02-11T07:38:53.850Z,9.32
2023-02-11T07:39:55.530Z,10.63
2023-02-11T07:41:00.849Z,11.23
2023-02-11T07:42:04.002Z,9.25
2023-02-11T07:43:05.737Z,9.65
2023-02-11T07:44:07.472Z,10.50
2023-02-11T07:45:09.510Z,10.00
2023-02-11T07:46:14.614Z,11.15
2023-02-11T07:47:16.378Z,10.23
2023-02-11T07:48:18.067Z,10.20
2023-02-11T07:49:19.730Z,9.77
2023-02-11T07:50:21.410Z,9.48
2023-02-11T07:51:28.184Z,9.85
2023-02-11T07:52:30.920Z,9.98
2023-02-11T07:53:32.629Z,9.82
2023-02-11T07:54:34.324Z,9.73
2023-02-11T07:55:35.996Z,12.52
2023-02-11T07:56:37.699Z,11.82
2023-02-11T07:57:39.450Z,8.35
2023-02-11T07:58:41.517Z,9.88
2023-02-11T07:59:43.153Z,9.43
2023-02-11T08:00:44.855Z,11.68
2023-02-11T08:01:46.623Z,11.93
2023-02-11T08:02:48.294Z,12.15
2023-02-11T08:03:50.041Z,10.85
2023-02-11T08:04:51.728Z,12.20
2023-02-11T08:05:53.557Z,11.77
2023-02-11T08:06:57.831Z,11.45
2023-02-11T08:08:00.694Z,12.93
2023-02-11T08:09:07.774Z,11.18
2023-02-11T08:10:09.704Z,11.13
2023-02-11T08:11:28.965Z,11.57
2023-02-11T08:12:30.766Z,10.77
2023-02-11T08:13:32.419Z,11.40
2023-02-11T08:14:34.095Z,12.43
2023-02-11T08:15:35.717Z,12.23
2023-02-11T08:16:38.030Z,11.75
2023-02-11T08:17:39.750Z,11.57
2023-02-11T08:18:41.472Z,11.65
2023-02-11T08:19:43.328Z,11.80
2023-02-11T08:20:45.036Z,10.50
2023-02-11T08:21:46.742Z,11.30
2023-02-11T08:22:48.450Z,11.40
2023-02-11T08:23:50.444Z,12.00
2023-02-11T08:24:52.515Z,10.60
2023-02-11T08:25:54.336Z,11.30
2023-02-11T08:26:56.061Z,10.90
2023-02-11T08:27:58.304Z,12.10
2023-02-11T08:29:01.547Z,13.60
2023-02-11T08:30:03.658Z,11.43
2023-02-11T08:31:07.281Z,10.98
2023-02-11T08:32:09.180Z,9.73
2023-02-11T08:33:10.940Z,10.38
2023-02-11T08:34:13.634Z,10.23
2023-02-11T08:35:15.428Z,10.15
2023-02-11T08:36:25.443Z,10.90
2023-02-11T08:37:27.183Z,11.13
2023-02-11T08:38:28.927Z,11.48
2023-02-11T08:39:31.521Z,10.85
2023-02-11T08:40:33.232Z,11.05
2023-02-11T08:41:35.766Z,10.13
2023-02-11T08:42:37.435Z,10.68
2023-02-11T08:43:39.162Z,10.23
2023-02-11T08:44:41.302Z,11.32
2023-02-11T08:45:43.052Z,10.57
2023-02-11T08:46:44.746Z,11.93
2023-02-11T08:47:46.415Z,11.60
2023-02-11T08:48:48.307Z,11.65
2023-02-11T08:49:50.145Z,20.65
2023-02-11T08:50:52.114Z,15.25
2023-02-11T08:51:53.997Z,12.25
2023-02-11T08:52:55.722Z,11.65
2023-02-11T08:53:58.082Z,10.70
2023-02-11T08:54:59.888Z,10.43
2023-02-11T08:56:01.780Z,12.15
2023-02-11T08:57:04.142Z,10.97
2023-02-11T08:58:05.905Z,11.07
2023-02-11T08:59:08.238Z,11.63
2023-02-11T09:00:10.651Z,9.90
2023-02-11T09:01:23.099Z,11.60
2023-02-11T09:02:24.898Z,9.40
2023-02-11T09:03:26.635Z,11.02
2023-02-11T09:04:28.402Z,9.77
2023-02-11T09:05:30.189Z,11.63
2023-02-11T09:06:32.120Z,11.35
2023-02-11T09:07:33.828Z,11.40
2023-02-11T09:08:37.490Z,9.93
2023-02-11T09:09:39.193Z,8.93
2023-02-11T09:10:40.940Z,11.50
2023-02-11T09:11:44.411Z,10.43
2023-02-11T09:12:46.219Z,11.05
2023-02-11T09:13:48.202Z,10.32
2023-02-11T09:14:49.899Z,11.18
2023-02-11T09:15:51.639Z,11.32
2023-02-11T09:16:54.044Z,11.35
2023-02-11T09:17:56.459Z,11.87
2023-02-11T09:18:59.442Z,11.07
2023-02-11T09:20:01.250Z,11.43
2023-02-11T09:21:09.387Z,11.45
2023-02-11T09:22:11.184Z,12.65
2023-02-11T09:23:12.868Z,11.60
2023-02-11T09:24:14.634Z,11.57
2023-02-11T09:25:16.444Z,11.95
2023-02-11T09:26:44.360Z,12.43
2023-02-11T09:27:46.436Z,13.38
2023-02-11T09:28:48.626Z,11.30
2023-02-11T09:29:50.382Z,12.55
2023-02-11T09:30:52.304Z,11.73
2023-02-11T09:31:54.412Z,12.52
2023-02-11T09:32:56.215Z,15.55
2023-02-11T09:34:01.177Z,12.63
2023-02-11T09:35:02.912Z,12.88
2023-02-11T09:36:06.212Z,11.02
2023-02-11T09:37:07.881Z,12.73
2023-02-11T09:38:09.669Z,12.00
2023-02-11T09:39:20.342Z,13.13
2023-02-11T09:40:22.887Z,13.20
2023-02-11T09:41:24.529Z,12.70
2023-02-11T09:42:37.923Z,11.75
2023-02-11T09:43:46.648Z,12.43
2023-02-11T09:44:48.896Z,11.93
2023-02-11T09:45:53.844Z,11.80
2023-02-11T09:47:01.504Z,14.27
2023-02-11T09:48:33.730Z,13.98
2023-02-11T09:49:42.859Z,12.15
2023-02-11T09:50:55.709Z,10.77
2023-02-11T09:52:12.531Z,9.27
2023-02-11T09:53:20.216Z,11.35
2023-02-11T09:54:49.020Z,10.52
2023-02-11T09:56:02.197Z,11.73
2023-02-11T09:57:04.764Z,10.13
2023-02-11T09:58:15.258Z,11.45
2023-02-11T09:59:17.662Z,9.30
2023-02-11T10:00:28.522Z,10.10
2023-02-11T10:01:40.220Z,10.75
2023-02-11T10:02:50.636Z,13.07
2023-02-11T10:04:20.453Z,10.00
2023-02-11T10:05:24.798Z,8.60
2023-02-11T10:06:29.004Z,9.25
2023-02-11T10:08:05.357Z,9.68
2023-02-11T10:09:26.182Z,9.90
2023-02-11T10:10:45.320Z,9.02
2023-02-11T10:11:58.195Z,9.18
2023-02-11T10:13:12.073Z,9.35
2023-02-11T10:14:55.085Z,9.43
2023-02-11T10:16:28.332Z,9.73
2023-02-11T10:17:45.654Z,10.48
2023-02-11T10:18:50.094Z,9.55
2023-02-11T10:20:20.965Z,9.23
2023-02-11T10:21:45.173Z,8.75
2023-02-11T10:22:54.762Z,10.57
2023-02-11T10:24:00.575Z,7.93
2023-02-11T10:25:32.416Z,8.55
2023-02-11T10:26:37.008Z,8.23
2023-02-11T10:27:38.718Z,7.47
2023-02-11T10:28:44.290Z,7.73
2023-02-11T10:30:01.279Z,9.73
2023-02-11T10:31:08.553Z,8.02
2023-02-11T10:32:47.864Z,8.25
2023-02-11T10:34:11.623Z,5.35
2023-02-11T10:35:17.318Z,7.00
2023-02-11T10:36:21.143Z,8.40
2023-02-11T10:37:22.913Z,9.10
2023-02-11T10:38:25.215Z,7.38
2023-02-11T10:39:28.188Z,8.63
2023-02-11T10:40:31.623Z,8.13
2023-02-11T10:41:38.257Z,9.00
2023-02-11T10:42:42.275Z,8.27
2023-02-11T10:43:43.959Z,6.05
2023-02-11T10:45:04.718Z,7.55
2023-02-11T10:46:06.599Z,7.40
2023-02-11T10:47:22.538Z,7.10
2023-02-11T10:48:43.478Z,7.95
2023-02-11T10:49:47.006Z,8.32
2023-02-11T10:50:48.936Z,7.53
2023-02-11T10:52:10.406Z,7.23
2023-02-11T10:53:18.344Z,6.80
2023-02-11T10:54:20.012Z,8.98
2023-02-11T10:55:26.714Z,7.93
2023-02-11T10:56:29.165Z,7.90
2023-02-11T10:57:35.095Z,8.48
2023-02-11T10:58:44.091Z,8.68
2023-02-11T10:59:45.925Z,8.25
2023-02-11T11:00:53.213Z,7.47
2023-02-11T11:01:59.763Z,7.55
2023-02-11T11:03:02.693Z,11.53
2023-02-11T11:04:04.593Z,9.35
2023-02-11T11:05:19.948Z,11.10
2023-02-11T11:06:35.354Z,9.23
2023-02-11T11:07:37.422Z,8.05
2023-02-11T11:08:41.688Z,8.18
2023-02-11T11:09:51.651Z,9.48
2023-02-11T11:11:08.377Z,7.70
2023-02-11T11:12:39.670Z,7.05
2023-02-11T11:13:54.151Z,6.70
2023-02-11T11:14:58.755Z,7.40
2023-02-11T11:16:12.640Z,7.88
2023-02-11T11:17:19.245Z,8.30
2023-02-11T11:18:23.262Z,6.35
2023-02-11T11:19:26.269Z,5.22
2023-02-11T11:20:30.795Z,7.35
2023-02-11T11:21:41.522Z,7.65
2023-02-11T11:22:44.079Z,6.20
2023-02-11T11:23:55.728Z,7.32
2023-02-11T11:24:57.533Z,7.22
2023-02-11T11:26:06.327Z,7.13
2023-02-11T11:27:17.520Z,6.93
2023-02-11T11:28:24.128Z,7.10
2023-02-11T11:29:39.627Z,7.38
2023-02-11T11:30:43.338Z,7.13
2023-02-11T11:31:55.824Z,9.50
2023-02-11T11:32:58.468Z,6.82
2023-02-11T11:34:13.203Z,7.20
2023-02-11T11:35:28.298Z,7.07
2023-02-11T11:36:39.542Z,5.90
2023-02-11T11:37:42.100Z,7.53
2023-02-11T11:38:49.260Z,7.57
2023-02-11T11:40:07.976Z,6.72
2023-02-11T11:41:32.737Z,6.80
2023-02-11T11:42:37.529Z,5.18
2023-02-11T11:43:39.337Z,6.97
2023-02-11T11:44:41.126Z,6.03
2023-02-11T11:46:00.160Z,7.13
2023-02-11T11:47:25.367Z,7.75
2023-02-11T11:48:42.431Z,6.45
2023-02-11T11:50:05.998Z,6.93
2023-02-11T11:51:12.127Z,6.22
2023-02-11T11:52:32.038Z,6.93
2023-02-11T11:53:36.447Z,6.88
2023-02-11T11:54:40.275Z,7.43
2023-02-11T11:56:16.356Z,6.82
2023-02-11T11:57:22.268Z,5.35
2023-02-11T11:58:24.222Z,6.40
2023-02-11T11:59:25.926Z,6.32
2023-02-11T12:00:48.159Z,6.80
2023-02-11T12:02:27.157Z,5.70
2023-02-11T12:03:45.199Z,5.53
2023-02-11T12:05:22.647Z,6.85
2023-02-11T12:06:26.914Z,5.85
2023-02-11T12:07:46.494Z,6.70
2023-02-11T12:09:06.535Z,7.03
2023-02-11T12:10:35.627Z,5.90
2023-02-11T12:11:49.560Z,5.80
2023-02-11T12:13:26.385Z,7.05
2023-02-11T12:14:59.935Z,6.05
2023-02-11T12:16:09.661Z,5.93
2023-02-11T12:17:31.688Z,6.03
2023-02-11T12:18:49.266Z,6.28
2023-02-11T12:19:55.336Z,5.63
2023-02-11T12:20:59.986Z,5.07
2023-02-11T12:22:20.111Z,6.20
2023-02-11T12:23:33.889Z,5.78
2023-02-11T12:24:46.031Z,5.10
2023-02-11T12:25:54.362Z,6.38
2023-02-11T12:27:33.144Z,6.53
2023-02-11T12:29:04.698Z,5.60
2023-02-11T12:30:26.996Z,6.70
2023-02-11T12:31:59.806Z,6.38
2023-02-11T12:33:16.169Z,5.05
2023-02-11T12:34:38.346Z,6.45
2023-02-11T12:36:14.965Z,4.18
2023-02-11T12:37:27.152Z,6.10
2023-02-11T12:38:47.658Z,5.32
2023-02-11T12:40:13.039Z,5.50
2023-02-11T12:41:37.885Z,4.80
2023-02-11T12:43:22.296Z,6.10
2023-02-11T12:44:32.939Z,3.00
2023-02-11T12:46:11.256Z,5.85
2023-02-11T12:47:18.578Z,6.10
2023-02-11T12:48:44.709Z,5.10
2023-02-11T12:49:58.768Z,5.50
2023-02-11T12:51:00.894Z,8.13
2023-02-11T12:52:02.544Z,5.75
2023-02-11T12:53:15.996Z,5.65
2023-02-11T12:54:48.786Z,6.15
2023-02-11T12:55:57.904Z,5.83
2023-02-11T12:57:17.730Z,5.55
2023-02-11T12:58:29.697Z,5.80
2023-02-11T12:59:58.849Z,5.60
2023-02-11T13:01:29.811Z,6.13
2023-02-11T13:02:59.957Z,6.43
2023-02-11T13:04:18.038Z,5.68
2023-02-11T13:05:41.111Z,5.75
2023-02-11T13:06:51.158Z,5.80
2023-02-11T13:07:59.367Z,6.63
2023-02-11T13:09:04.490Z,5.87
2023-02-11T13:10:46.985Z,5.70
2023-02-11T13:11:55.044Z,6.10
2023-02-11T13:12:58.840Z,6.07
2023-02-11T13:14:06.600Z,6.28
2023-02-11T13:15:14.401Z,6.10
2023-02-11T13:16:48.515Z,5.88
2023-02-11T13:18:06.173Z,4.90
2023-02-11T13:19:14.089Z,5.43
2023-02-11T13:20:45.453Z,5.90
2023-02-11T13:22:13.400Z,5.27
2023-02-11T13:23:26.338Z,5.20
2023-02-11T13:24:53.283Z,5.78
2023-02-11T13:26:02.752Z,7.78
2023-02-11T13:27:15.853Z,6.05
2023-02-11T13:28:36.508Z,5.68
2023-02-11T13:30:03.035Z,5.90
2023-02-11T13:31:08.128Z,4.72
2023-02-11T13:32:12.831Z,6.03
2023-02-11T13:33:20.914Z,5.55
2023-02-11T13:34:44.070Z,6.53
2023-02-11T13:35:58.010Z,5.82
2023-02-11T13:36:59.803Z,5.90
2023-02-11T13:38:24.285Z,6.47
2023-02-11T13:39:26.067Z,5.20
2023-02-11T13:40:38.639Z,7.03
2023-02-11T13:41:41.904Z,6.10
2023-02-11T13:42:59.831Z,8.00
2023-02-11T13:44:10.464Z,6.15
2023-02-11T13:45:45.394Z,6.32
2023-02-11T13:46:54.194Z,5.80
2023-02-11T13:48:02.190Z,6.43
2023-02-11T13:49:03.909Z,5.85
2023-02-11T13:50:07.701Z,6.30
2023-02-11T13:51:12.727Z,6.47
2023-02-11T13:52:35.777Z,5.78
2023-02-11T13:53:52.239Z,6.20
2023-02-11T13:54:56.912Z,5.82
2023-02-11T13:56:28.439Z,6.88
2023-02-11T13:57:33.736Z,6.10
2023-02-11T13:58:38.341Z,6.93
2023-02-11T13:59:39.963Z,6.10
2023-02-11T14:00:49.848Z,5.55
2023-02-11T14:01:51.965Z,6.13
2023-02-11T14:03:11.548Z,6.35
2023-02-11T14:04:23.075Z,5.30
2023-02-11T14:05:29.527Z,4.82
2023-02-11T14:06:31.296Z,6.10
2023-02-11T14:07:34.107Z,6.28
2023-02-11T14:08:38.765Z,5.90
2023-02-11T14:09:41.146Z,5.63
2023-02-11T14:10:42.830Z,6.03
2023-02-11T14:11:53.335Z,5.40
2023-02-11T14:13:23.000Z,5.82
2023-02-11T14:14:25.959Z,5.95
2023-02-11T14:15:27.948Z,5.95
2023-02-11T14:16:37.903Z,6.10
2023-02-11T14:17:40.295Z,6.28
2023-02-11T14:18:45.028Z,5.25
2023-02-11T14:19:48.734Z,5.30
2023-02-11T14:20:50.821Z,5.30
2023-02-11T14:21:53.446Z,6.15
2023-02-11T14:22:56.651Z,5.57
2023-02-11T14:24:10.205Z,5.57
2023-02-11T14:25:24.456Z,5.88
2023-02-11T14:26:44.122Z,5.25
2023-02-11T14:28:07.874Z,5.70
2023-02-11T14:29:42.042Z,5.88
2023-02-11T14:31:18.096Z,5.00
2023-02-11T14:32:22.602Z,6.13
2023-02-11T14:34:10.466Z,5.60
2023-02-11T14:35:25.015Z,5.10
2023-02-11T14:36:40.308Z,5.60
2023-02-11T14:38:18.647Z,5.10
2023-02-11T14:39:47.766Z,6.22
2023-02-11T14:40:52.582Z,5.88
2023-02-11T14:41:54.936Z,6.10
2023-02-11T14:43:02.982Z,5.80
2023-02-11T14:44:12.671Z,6.40
2023-02-11T14:45:23.440Z,6.40
2023-02-11T14:46:25.996Z,6.23
2023-02-11T14:47:36.655Z,5.97
2023-02-11T14:48:43.333Z,6.03
2023-02-11T14:49:45.752Z,6.50